Time;durP1;ratioP1;P1;durP2;ratioP2;P2;SDS_P1;SDS_P2;PMS_P1;PMS_P2;Temp;Humidity;BMP_temperature;BMP_pressure;BME280_temperature;BME280_humidity;BME280_pressure;Samples;Min_cycle;Max_cycle;Signal;HPM_P1;HPM_P2
2022/12/09 00:01:57;;;;;;;93.05;40.47;;;-2.20;95.40;;;;;;5039655;28;20419;-88
2022/12/09 00:04:23;;;;;;;123.13;42.15;;;-2.20;95.50;;;;;;5039521;28;20475;-90
2022/12/09 00:06:49;;;;;;;122.00;44.50;;;-2.20;95.70;;;;;;5039853;28;20405;-88
2022/12/09 00:09:15;;;;;;;133.43;48.03;;;-2.20;95.80;;;;;;5005725;28;20417;-88
2022/12/09 00:11:41;;;;;;;107.03;48.33;;;-2.20;95.80;;;;;;5006956;28;20796;-89
2022/12/09 00:14:08;;;;;;;153.85;54.95;;;-2.10;96.10;;;;;;5039019;28;20776;-89
2022/12/09 00:16:34;;;;;;;222.23;53.75;;;-2.10;95.90;;;;;;5040089;28;20931;-88
2022/12/09 00:19:00;;;;;;;257.07;73.03;;;-2.10;96.10;;;;;;5038748;28;20413;-89
2022/12/09 00:21:28;;;;;;;285.43;69.47;;;-2.10;96.10;;;;;;5006567;28;20409;-89
2022/12/09 00:23:56;;;;;;;202.88;65.53;;;-2.10;96.00;;;;;;5023030;28;20413;-89
2022/12/09 00:26:23;;;;;;;177.88;59.33;;;-2.10;95.90;;;;;;5038759;28;20436;-89
2022/12/09 00:28:50;;;;;;;222.05;56.13;;;-2.10;96.10;;;;;;5040167;28;20413;-89
2022/12/09 00:31:20;;;;;;;140.68;59.25;;;-2.10;95.90;;;;;;5038715;28;20404;-89
2022/12/09 00:33:45;;;;;;;191.82;55.25;;;-2.10;96.20;;;;;;5039762;28;20411;-88
2022/12/09 00:36:15;;;;;;;211.40;69.65;;;-2.10;95.90;;;;;;5038405;28;20425;-88
2022/12/09 00:38:41;;;;;;;184.30;45.72;;;-2.10;96.00;;;;;;5039581;28;20547;-88
2022/12/09 00:41:07;;;;;;;178.85;54.30;;;-2.20;95.60;;;;;;5039166;28;20456;-88
2022/12/09 00:43:33;;;;;;;189.85;52.40;;;-2.20;95.40;;;;;;5042468;28;20405;-89
2022/12/09 00:45:59;;;;;;;218.60;54.57;;;-2.30;95.50;;;;;;5043378;28;20448;-88
2022/12/09 00:48:26;;;;;;;145.73;47.10;;;-2.30;95.60;;;;;;5026025;28;20434;-89
2022/12/09 00:50:52;;;;;;;103.18;46.00;;;-2.40;95.60;;;;;;5044444;28;20844;-89
2022/12/09 00:53:17;;;;;;;71.23;38.80;;;-2.40;95.70;;;;;;5025737;28;20500;-89
2022/12/09 00:55:44;;;;;;;72.20;39.83;;;-2.40;95.90;;;;;;5010151;28;20416;-89
2022/12/09 00:58:10;;;;;;;96.20;49.33;;;-2.40;95.60;;;;;;5042642;28;20401;-88
2022/12/09 01:00:36;;;;;;;51.63;31.67;;;-2.40;95.60;;;;;;5042417;28;20445;-89
2022/12/09 01:03:01;;;;;;;67.32;40.80;;;-2.50;95.30;;;;;;5043084;28;20448;-89
2022/12/09 01:05:27;;;;;;;52.50;32.00;;;-2.50;95.10;;;;;;5025418;28;20508;-90
2022/12/09 01:07:53;;;;;;;45.25;29.80;;;-2.60;95.40;;;;;;5043586;28;20409;-89
2022/12/09 01:10:19;;;;;;;56.23;35.07;;;-2.60;95.00;;;;;;5042002;28;20760;-89
2022/12/09 01:12:44;;;;;;;44.60;29.07;;;-2.60;95.10;;;;;;5009845;28;20412;-89
2022/12/09 01:15:10;;;;;;;50.50;32.30;;;-2.60;95.20;;;;;;5042166;28;20480;-88
2022/12/09 01:17:37;;;;;;;50.95;32.50;;;-2.60;95.60;;;;;;5026350;28;21078;-88
2022/12/09 01:20:05;;;;;;;51.10;33.92;;;-2.70;95.40;;;;;;5045542;28;20400;-88
2022/12/09 01:22:31;;;;;;;48.53;32.75;;;-2.70;95.60;;;;;;5028579;28;20403;-89
2022/12/09 01:24:56;;;;;;;45.22;31.83;;;-2.70;95.50;;;;;;5029128;28;20431;-89
2022/12/09 01:27:22;;;;;;;40.97;28.17;;;-2.70;95.50;;;;;;5028279;28;20427;-88
2022/12/09 01:29:48;;;;;;;37.40;26.63;;;-2.60;95.60;;;;;;5029927;28;20399;-89
2022/12/09 01:32:13;;;;;;;41.33;27.37;;;-2.60;95.50;;;;;;5027628;28;20423;-89
2022/12/09 01:34:39;;;;;;;52.37;31.70;;;-2.60;95.80;;;;;;5029058;28;20506;-89
2022/12/09 01:37:04;;;;;;;49.10;33.28;;;-2.50;95.60;;;;;;5028409;28;20415;-89
2022/12/09 01:39:30;;;;;;;45.70;29.85;;;-2.60;95.70;;;;;;5028676;28;20485;-88
2022/12/09 01:41:55;;;;;;;43.50;28.27;;;-2.50;95.80;;;;;;5029393;28;20403;-88
2022/12/09 01:44:23;;;;;;;51.47;30.87;;;-2.60;95.70;;;;;;5028172;28;20476;-88
2022/12/09 01:46:54;;;;;;;49.15;29.42;;;-2.50;95.90;;;;;;5028951;28;20490;-89
2022/12/09 01:49:37;;;;;;;43.70;27.48;;;-2.50;95.80;;;;;;5027289;28;20410;-89
2022/12/09 01:52:18;;;;;;;47.35;29.73;;;-2.50;95.80;;;;;;5029184;28;20410;-89
2022/12/09 01:54:46;;;;;;;56.45;31.95;;;-2.60;95.50;;;;;;5026934;28;20416;-89
2022/12/09 01:57:12;;;;;;;53.25;32.42;;;-2.50;95.60;;;;;;5028065;28;20762;-89
2022/12/09 01:59:38;;;;;;;42.72;26.50;;;-2.60;95.70;;;;;;5028700;28;20446;-89
2022/12/09 02:02:06;;;;;;;46.30;26.97;;;-2.60;95.60;;;;;;5027441;28;20461;-89
2022/12/09 02:04:38;;;;;;;41.25;25.98;;;-2.60;95.50;;;;;;5028655;28;20430;-88
2022/12/09 02:07:07;;;;;;;56.93;32.67;;;-2.60;95.40;;;;;;5027386;28;20449;-88
2022/12/09 02:09:33;;;;;;;51.65;29.85;;;-2.60;95.40;;;;;;5028099;28;20418;-89
2022/12/09 02:12:11;;;;;;;45.27;27.73;;;-2.70;95.50;;;;;;5044712;28;20462;-88
2022/12/09 02:14:42;;;;;;;61.65;32.72;;;-2.60;95.70;;;;;;5027087;28;20418;-88
2022/12/09 02:17:22;;;;;;;48.50;28.23;;;-2.60;95.70;;;;;;5028454;28;20403;-89
2022/12/09 02:19:53;;;;;;;38.85;23.35;;;-2.60;95.80;;;;;;5027540;28;20419;-89
2022/12/09 02:22:25;;;;;;;48.38;27.40;;;-2.60;95.70;;;;;;5027875;28;20418;-89
2022/12/09 02:25:08;;;;;;;56.08;29.83;;;-2.70;95.30;;;;;;5027809;28;20427;-89
2022/12/09 02:27:42;;;;;;;63.90;31.80;;;-2.70;95.40;;;;;;5018013;28;20466;-89
2022/12/09 02:30:23;;;;;;;44.42;25.17;;;-2.70;95.80;;;;;;5025371;28;20860;-88
2022/12/09 02:33:05;;;;;;;43.63;23.77;;;-2.60;95.80;;;;;;5023262;28;20420;-89
2022/12/09 02:35:51;;;;;;;50.13;26.67;;;-2.70;95.40;;;;;;5008211;28;20421;-89
2022/12/09 02:38:25;;;;;;;52.88;26.88;;;-2.70;95.30;;;;;;5024681;28;20417;-90
2022/12/09 02:41:02;;;;;;;51.28;26.35;;;-2.70;95.50;;;;;;5023136;28;20464;-89
2022/12/09 02:43:32;;;;;;;61.65;30.02;;;-2.70;95.60;;;;;;5008446;28;20413;-89
2022/12/09 02:45:59;;;;;;;45.53;24.10;;;-2.70;95.70;;;;;;5006906;28;20475;-88
2022/12/09 02:48:31;;;;;;;41.43;23.27;;;-2.70;95.80;;;;;;5024857;28;20822;-89
2022/12/09 02:50:58;;;;;;;53.70;26.50;;;-2.70;95.60;;;;;;5008055;28;20455;-89
2022/12/09 02:53:25;;;;;;;50.60;25.63;;;-2.70;95.50;;;;;;5006933;28;20421;-89
2022/12/09 02:55:53;;;;;;;45.72;23.90;;;-2.60;95.50;;;;;;5024178;28;20408;-89
2022/12/09 02:58:19;;;;;;;51.65;25.67;;;-2.80;95.60;;;;;;5007004;28;20405;-89
2022/12/09 03:00:44;;;;;;;65.57;29.13;;;-2.80;95.70;;;;;;5024451;28;20427;-90
2022/12/09 03:03:15;;;;;;;68.97;31.40;;;-2.70;96.10;;;;;;5022919;28;20432;-88
2022/12/09 03:05:50;;;;;;;42.55;23.17;;;-2.70;96.10;;;;;;5007665;28;20443;-88
2022/12/09 03:08:25;;;;;;;44.15;21.80;;;-2.60;96.20;;;;;;5023286;28;20417;-89
2022/12/09 03:11:02;;;;;;;43.40;22.88;;;-2.60;95.90;;;;;;5022935;28;20451;-88
2022/12/09 03:13:46;;;;;;;46.77;22.77;;;-2.60;95.70;;;;;;5024557;28;20504;-89
2022/12/09 03:16:17;;;;;;;52.47;25.40;;;-2.60;95.80;;;;;;5006295;28;20467;-88
2022/12/09 03:18:47;;;;;;;52.65;25.33;;;-2.60;95.80;;;;;;5023575;28;20471;-89
2022/12/09 03:21:15;;;;;;;44.78;22.63;;;-2.60;95.80;;;;;;5006820;28;20405;-88
2022/12/09 03:23:44;;;;;;;39.10;21.02;;;-2.60;95.80;;;;;;5022999;28;20459;-89
2022/12/09 03:26:12;;;;;;;45.72;22.35;;;-2.60;95.50;;;;;;5007199;28;20463;-89
2022/12/09 03:28:43;;;;;;;45.13;22.85;;;-2.70;95.50;;;;;;5005791;28;20487;-89
2022/12/09 03:31:13;;;;;;;63.92;27.08;;;-2.70;95.40;;;;;;5023658;28;20759;-89
2022/12/09 03:33:42;;;;;;;52.25;24.63;;;-2.70;95.70;;;;;;5006638;28;20791;-88
2022/12/09 03:36:12;;;;;;;68.63;28.85;;;-2.60;95.80;;;;;;5023206;28;20890;-88
2022/12/09 03:38:41;;;;;;;57.47;25.88;;;-2.60;96.00;;;;;;5006735;28;20485;-89
2022/12/09 03:41:17;;;;;;;46.75;23.00;;;-2.60;96.30;;;;;;5006457;28;20788;-89
2022/12/09 03:43:50;;;;;;;46.30;22.02;;;-2.50;96.30;;;;;;5023817;28;20811;-89
2022/12/09 03:46:17;;;;;;;42.65;21.70;;;-2.50;96.00;;;;;;5005566;28;20428;-88
2022/12/09 03:48:43;;;;;;;53.25;24.88;;;-2.50;95.80;;;;;;5006852;28;20469;-89
2022/12/09 03:51:17;;;;;;;63.23;25.80;;;-2.50;95.90;;;;;;5006245;28;20859;-88
2022/12/09 03:53:49;;;;;;;45.28;22.42;;;-2.50;95.90;;;;;;5023102;28;20408;-89
2022/12/09 03:56:21;;;;;;;52.80;24.52;;;-2.50;96.00;;;;;;5023021;28;20424;-89
2022/12/09 03:58:49;;;;;;;39.15;19.58;;;-2.50;95.90;;;;;;5005425;28;20401;-89
2022/12/09 04:01:16;;;;;;;68.65;29.23;;;-2.50;95.90;;;;;;5006838;28;20974;-89
2022/12/09 04:03:44;;;;;;;38.17;20.38;;;-2.50;95.90;;;;;;5005455;28;20451;-88
2022/12/09 04:06:10;;;;;;;51.35;23.50;;;-2.50;95.80;;;;;;5006769;28;20503;-88
2022/12/09 04:08:35;;;;;;;50.47;23.70;;;-2.50;95.70;;;;;;5006203;28;20539;-88
2022/12/09 04:11:01;;;;;;;40.80;21.13;;;-2.50;95.70;;;;;;5022455;28;20405;-89
2022/12/09 04:13:26;;;;;;;44.30;22.13;;;-2.50;95.80;;;;;;5022670;28;20478;-88
2022/12/09 04:15:52;;;;;;;42.10;21.87;;;-2.40;95.80;;;;;;5022224;28;20471;-90
2022/12/09 04:18:17;;;;;;;65.17;26.30;;;-2.60;95.70;;;;;;5026766;28;20417;-89
2022/12/09 04:20:43;;;;;;;47.33;22.13;;;-2.50;95.80;;;;;;5025520;28;20409;-88
2022/12/09 04:23:09;;;;;;;48.30;23.73;;;-2.50;95.70;;;;;;5027641;28;20407;-89
2022/12/09 04:25:36;;;;;;;41.30;21.27;;;-2.60;95.40;;;;;;5009346;28;20444;-89
2022/12/09 04:28:02;;;;;;;41.45;21.15;;;-2.60;95.30;;;;;;5027091;28;20408;-89
2022/12/09 04:30:27;;;;;;;49.72;23.75;;;-2.60;95.30;;;;;;5010477;28;20412;-89
2022/12/09 04:32:53;;;;;;;47.07;22.87;;;-2.60;95.20;;;;;;5026531;28;20423;-89
2022/12/09 04:35:18;;;;;;;44.22;22.52;;;-2.70;95.40;;;;;;5026915;28;20482;-89
2022/12/09 04:37:44;;;;;;;49.90;24.00;;;-2.70;95.30;;;;;;5009075;28;20413;-89
2022/12/09 04:40:10;;;;;;;48.60;24.10;;;-2.70;95.60;;;;;;5026897;28;20564;-89
2022/12/09 04:42:36;;;;;;;56.22;25.60;;;-2.60;95.70;;;;;;5009237;28;20488;-89
2022/12/09 04:45:01;;;;;;;42.40;22.40;;;-2.60;95.80;;;;;;5026892;28;20524;-88
2022/12/09 04:47:27;;;;;;;50.55;24.27;;;-2.70;95.70;;;;;;5009199;28;20894;-88
2022/12/09 04:49:53;;;;;;;50.17;24.27;;;-2.60;95.60;;;;;;5009847;28;20409;-88
2022/12/09 04:52:18;;;;;;;40.93;21.90;;;-2.70;95.60;;;;;;5026597;28;20456;-88
2022/12/09 04:54:44;;;;;;;40.50;21.00;;;-2.70;95.80;;;;;;5025619;28;20458;-89
2022/12/09 04:57:10;;;;;;;53.27;24.13;;;-2.60;95.60;;;;;;5010189;28;20401;-89
2022/12/09 04:59:36;;;;;;;52.63;24.05;;;-2.70;95.40;;;;;;5008607;28;20401;-88
2022/12/09 05:02:02;;;;;;;56.08;25.17;;;-2.70;95.50;;;;;;5010510;28;20768;-88
2022/12/09 05:04:28;;;;;;;55.47;25.47;;;-2.70;95.60;;;;;;5025504;28;20420;-88
2022/12/09 05:06:53;;;;;;;49.30;23.83;;;-2.70;95.60;;;;;;5026308;28;20415;-89
2022/12/09 05:09:19;;;;;;;50.83;22.92;;;-2.60;95.90;;;;;;5026038;28;20413;-87
2022/12/09 05:11:44;;;;;;;46.22;23.15;;;-2.60;96.00;;;;;;5025588;28;21209;-88
2022/12/09 05:14:10;;;;;;;46.30;22.70;;;-2.60;95.90;;;;;;5026645;28;20452;-87
2022/12/09 05:16:36;;;;;;;44.57;23.20;;;-2.60;95.60;;;;;;5025487;28;21193;-89
2022/12/09 05:19:02;;;;;;;70.78;28.00;;;-2.60;95.60;;;;;;5010161;28;21036;-90
2022/12/09 05:21:28;;;;;;;60.05;26.52;;;-2.50;95.80;;;;;;5025027;28;20444;-89
2022/12/09 05:23:53;;;;;;;36.58;20.60;;;-2.60;96.00;;;;;;5026700;28;20412;-89
2022/12/09 05:26:21;;;;;;;47.58;22.42;;;-2.60;95.90;;;;;;5024748;28;20419;-88
2022/12/09 05:28:47;;;;;;;39.85;20.25;;;-2.50;95.60;;;;;;5009629;28;20830;-89
2022/12/09 05:31:18;;;;;;;49.95;23.63;;;-2.60;95.40;;;;;;5009564;28;21081;-89
2022/12/09 05:33:44;;;;;;;45.72;22.52;;;-2.60;95.40;;;;;;5008238;28;20891;-88
2022/12/09 05:36:11;;;;;;;75.20;29.30;;;-2.70;95.50;;;;;;5009920;28;20873;-91
2022/12/09 05:38:40;;;;;;;46.72;22.25;;;-2.40;95.90;;;;;;5023466;28;20504;-88
2022/12/09 05:41:06;;;;;;;43.30;22.05;;;-2.60;95.90;;;;;;5026046;28;20856;-90
2022/12/09 05:43:33;;;;;;;51.33;24.65;;;-2.60;95.70;;;;;;5025406;28;20417;-89
2022/12/09 05:45:59;;;;;;;57.30;25.53;;;-2.60;95.40;;;;;;5008591;28;20432;-89
2022/12/09 05:48:25;;;;;;;81.90;31.10;;;-2.60;95.50;;;;;;5025557;28;20472;-89
2022/12/09 05:51:06;;;;;;;66.83;27.63;;;-2.50;95.80;;;;;;5024690;28;20583;-88
2022/12/09 05:53:32;;;;;;;61.15;27.23;;;-2.60;96.00;;;;;;5025926;28;20412;-88
2022/12/09 05:55:58;;;;;;;50.63;25.00;;;-2.60;96.00;;;;;;5024609;28;20763;-89
2022/12/09 05:58:24;;;;;;;41.77;20.83;;;-2.60;96.00;;;;;;5009203;28;20413;-89
2022/12/09 06:00:50;;;;;;;39.57;21.53;;;-2.60;95.80;;;;;;5024791;28;20413;-89
2022/12/09 06:03:15;;;;;;;47.73;22.80;;;-2.60;95.30;;;;;;5025057;28;20927;-90
2022/12/09 06:05:42;;;;;;;74.40;30.77;;;-2.70;95.10;;;;;;5008178;28;20958;-88
2022/12/09 06:08:07;;;;;;;67.27;28.03;;;-2.70;95.50;;;;;;5005868;28;20425;-89
2022/12/09 06:10:33;;;;;;;70.23;28.90;;;-2.70;95.80;;;;;;5008322;28;20950;-89
2022/12/09 06:12:59;;;;;;;71.03;29.43;;;-2.60;95.90;;;;;;4990697;28;20417;-88
2022/12/09 06:15:25;;;;;;;44.57;24.07;;;-2.60;96.10;;;;;;4992940;28;20859;-92
2022/12/09 06:17:50;;;;;;;47.70;25.20;;;-2.60;95.80;;;;;;4990944;28;20464;-91
2022/12/09 06:20:17;;;;;;;52.65;26.50;;;-2.60;95.50;;;;;;5008559;28;20416;-89
2022/12/09 06:22:43;;;;;;;54.67;27.77;;;-2.60;95.60;;;;;;4984527;28;20892;-88
2022/12/09 06:25:09;;;;;;;61.22;28.45;;;-2.50;95.80;;;;;;4987284;28;20439;-87
2022/12/09 06:27:34;;;;;;;49.75;26.35;;;-2.50;95.80;;;;;;5004331;28;20421;-87
2022/12/09 06:30:01;;;;;;;50.80;26.02;;;-2.50;95.90;;;;;;5021011;28;20835;-88
2022/12/09 06:32:28;;;;;;;54.78;27.17;;;-2.30;95.90;;;;;;5028987;28;20413;-88
2022/12/09 06:34:54;;;;;;;82.97;34.45;;;-2.30;96.00;;;;;;4992270;28;20421;-88
2022/12/09 06:37:20;;;;;;;55.92;26.88;;;-2.20;96.20;;;;;;4971779;28;20422;-89
2022/12/09 06:39:46;;;;;;;57.63;27.87;;;-2.20;96.20;;;;;;4986792;28;20477;-89
2022/12/09 06:42:11;;;;;;;57.83;27.93;;;-2.10;96.10;;;;;;4971628;28;20420;-89
2022/12/09 06:44:38;;;;;;;62.13;28.73;;;-2.10;96.00;;;;;;4985146;28;20436;-89
2022/12/09 06:47:05;;;;;;;58.03;28.40;;;-2.00;96.10;;;;;;5038294;28;20892;-87
2022/12/09 06:49:30;;;;;;;73.80;31.50;;;-1.90;96.20;;;;;;4981468;28;20404;-88
2022/12/09 06:51:56;;;;;;;67.10;30.33;;;-1.80;96.30;;;;;;5016920;28;20439;-87
2022/12/09 06:54:22;;;;;;;64.80;30.02;;;-1.80;96.20;;;;;;4972196;28;20794;-88
2022/12/09 06:56:47;;;;;;;68.20;30.07;;;-1.80;96.30;;;;;;4986392;28;20422;-88
2022/12/09 06:59:13;;;;;;;69.00;30.43;;;-1.70;96.20;;;;;;4997999;28;20419;-88
2022/12/09 07:01:39;;;;;;;76.32;32.35;;;-1.70;96.30;;;;;;4990990;28;20512;-88
2022/12/09 07:04:04;;;;;;;64.25;28.90;;;-1.60;96.20;;;;;;4987186;28;20427;-88
2022/12/09 07:06:41;;;;;;;57.58;26.40;;;-1.60;96.30;;;;;;4987519;28;20434;-89
2022/12/09 07:09:12;;;;;;;63.03;28.48;;;-1.60;96.00;;;;;;4986728;28;20419;-89
2022/12/09 07:11:41;;;;;;;57.67;27.58;;;-1.60;95.90;;;;;;4993372;28;20410;-88
2022/12/09 07:14:07;;;;;;;52.40;26.02;;;-1.60;95.70;;;;;;5022735;28;20439;-89
2022/12/09 07:16:33;;;;;;;97.25;37.20;;;-1.60;95.50;;;;;;5023996;28;20401;-90
2022/12/09 07:19:00;;;;;;;65.18;29.88;;;-1.60;95.50;;;;;;5036735;28;20417;-87
2022/12/09 07:21:26;;;;;;;72.28;31.08;;;-1.60;96.00;;;;;;5011547;28;20875;-89
2022/12/09 07:23:51;;;;;;;65.38;29.30;;;-1.60;95.90;;;;;;4982340;28;20444;-90
2022/12/09 07:26:18;;;;;;;62.08;28.67;;;-1.50;96.00;;;;;;4992757;28;20473;-90
2022/12/09 07:28:46;;;;;;;63.55;29.27;;;-1.50;96.00;;;;;;4971754;28;20407;-89
2022/12/09 07:31:38;;;;;;;57.70;28.98;;;-1.50;95.80;;;;;;4970281;28;20428;-89
2022/12/09 07:34:04;;;;;;;64.97;28.75;;;-1.50;95.80;;;;;;4986012;28;20411;-90
2022/12/09 07:36:31;;;;;;;65.90;29.37;;;-1.50;95.80;;;;;;4971038;28;20411;-93
2022/12/09 07:39:06;;;;;;;81.53;33.38;;;-1.30;96.10;;;;;;4970954;28;20413;-90
2022/12/09 07:41:33;;;;;;;72.28;33.40;;;-1.40;96.30;;;;;;4987752;28;20442;-89
2022/12/09 07:44:00;;;;;;;69.72;31.30;;;-1.40;96.00;;;;;;4986308;28;20399;-89
2022/12/09 07:46:26;;;;;;;84.80;34.87;;;-1.30;95.90;;;;;;4987976;28;21058;-90
2022/12/09 07:48:51;;;;;;;80.87;34.43;;;-1.40;95.80;;;;;;4970634;28;20406;-89
2022/12/09 07:51:17;;;;;;;89.25;37.25;;;-1.30;95.80;;;;;;4986639;28;20500;-89
2022/12/09 07:53:43;;;;;;;93.18;38.05;;;-1.00;96.10;;;;;;4971308;28;20420;-90
2022/12/09 07:56:13;;;;;;;76.57;33.78;;;-1.20;96.10;;;;;;4986890;28;20415;-88
2022/12/09 07:58:39;;;;;;;68.03;32.35;;;-1.10;96.10;;;;;;4987599;28;20460;-90
2022/12/09 08:01:11;;;;;;;94.47;39.88;;;-1.00;96.10;;;;;;4970597;28;20910;-90
2022/12/09 08:03:38;;;;;;;90.90;38.38;;;-1.00;96.10;;;;;;4971620;28;20406;-90
2022/12/09 08:06:04;;;;;;;94.88;40.22;;;-0.90;96.20;;;;;;4986566;28;20442;-89
2022/12/09 08:08:30;;;;;;;95.22;41.15;;;-0.80;96.30;;;;;;4987452;28;20418;-90
2022/12/09 08:11:04;;;;;;;126.68;48.45;;;-0.70;96.30;;;;;;4970857;28;20460;-90
2022/12/09 08:13:29;;;;;;;135.95;50.80;;;-0.70;96.40;;;;;;4970794;28;20766;-90
2022/12/09 08:16:00;;;;;;;138.23;51.73;;;-0.60;96.50;;;;;;4971505;28;20414;-90
2022/12/09 08:18:25;;;;;;;186.20;62.40;;;-0.50;96.40;;;;;;4986435;28;20417;-90
2022/12/09 08:20:51;;;;;;;151.50;53.30;;;-0.50;96.40;;;;;;4971873;28;20414;-90
2022/12/09 08:23:16;;;;;;;153.75;52.90;;;-0.40;96.50;;;;;;4986346;28;20407;-89
2022/12/09 08:25:42;;;;;;;168.05;55.63;;;-0.30;96.50;;;;;;5003908;28;20943;-90
2022/12/09 08:28:08;;;;;;;197.87;58.13;;;-0.20;96.50;;;;;;4970571;28;20412;-90
2022/12/09 08:30:35;;;;;;;191.43;59.13;;;-0.20;96.60;;;;;;4971069;28;20511;-91
2022/12/09 08:33:01;;;;;;;191.23;57.97;;;-0.10;96.60;;;;;;4987676;28;20414;-92
2022/12/09 08:35:28;;;;;;;172.97;55.60;;;-0.10;96.60;;;;;;4969870;28;20517;-91
2022/12/09 08:37:54;;;;;;;221.45;63.30;;;-0.10;96.40;;;;;;4987846;28;20477;-91
2022/12/09 08:40:20;;;;;;;161.90;54.35;;;0.00;96.30;;;;;;4969865;28;20406;-90
2022/12/09 08:42:45;;;;;;;159.63;53.13;;;0.00;96.30;;;;;;4971819;28;20817;-91
2022/12/09 08:45:11;;;;;;;173.70;55.10;;;0.00;96.30;;;;;;4970448;28;20438;-90
2022/12/09 08:47:36;;;;;;;146.88;51.15;;;0.10;96.30;;;;;;4971177;28;20448;-90
2022/12/09 08:50:02;;;;;;;191.98;58.78;;;0.10;96.20;;;;;;4971126;28;20423;-91
2022/12/09 08:52:28;;;;;;;152.03;52.23;;;0.20;96.40;;;;;;4970578;28;20762;-90
2022/12/09 08:54:53;;;;;;;133.10;49.97;;;0.30;96.30;;;;;;4971101;28;20418;-89
2022/12/09 08:57:23;;;;;;;103.57;43.60;;;0.40;96.50;;;;;;4986227;28;20443;-89
2022/12/09 08:59:48;;;;;;;109.20;44.70;;;0.40;96.10;;;;;;4987930;28;20414;-91
2022/12/09 09:02:14;;;;;;;122.20;46.20;;;0.50;96.10;;;;;;4986451;28;20448;-90
2022/12/09 09:04:39;;;;;;;102.05;43.92;;;0.50;96.00;;;;;;4974576;28;20955;-91
2022/12/09 09:07:05;;;;;;;85.53;39.53;;;0.50;95.90;;;;;;4974539;28;20426;-91
2022/12/09 09:09:30;;;;;;;89.63;39.60;;;0.60;95.80;;;;;;4974156;28;20486;-90
2022/12/09 09:11:56;;;;;;;83.93;38.78;;;0.60;95.70;;;;;;4974462;28;20418;-89
2022/12/09 09:14:22;;;;;;;100.10;40.63;;;0.60;95.60;;;;;;4973748;28;20413;-90
2022/12/09 09:16:47;;;;;;;105.33;41.77;;;0.60;95.60;;;;;;4990860;28;20418;-90
2022/12/09 09:19:19;;;;;;;169.75;49.80;;;0.60;95.70;;;;;;4973150;28;20411;-91
2022/12/09 09:21:45;;;;;;;123.22;43.83;;;0.70;95.70;;;;;;4990670;28;20458;-91
2022/12/09 09:24:13;;;;;;;126.55;42.20;;;0.70;95.70;;;;;;4973876;28;20972;-90
2022/12/09 09:26:41;;;;;;;117.50;43.37;;;0.80;95.70;;;;;;4973686;28;20458;-90
2022/12/09 09:29:10;;;;;;;128.05;43.63;;;0.80;95.60;;;;;;4990143;28;20547;-90
2022/12/09 09:31:36;;;;;;;143.20;43.70;;;0.80;95.60;;;;;;4973102;28;20453;-90
2022/12/09 09:34:02;;;;;;;120.10;41.30;;;0.90;95.50;;;;;;4974048;28;20505;-90
2022/12/09 09:36:28;;;;;;;114.18;42.22;;;0.80;95.50;;;;;;4989011;28;20423;-90
2022/12/09 09:38:56;;;;;;;118.45;42.17;;;0.80;95.50;;;;;;4974880;28;20541;-90
2022/12/09 09:41:41;;;;;;;108.65;41.83;;;0.90;95.90;;;;;;4973301;28;20410;-90
2022/12/09 09:44:29;;;;;;;115.10;42.13;;;0.80;95.50;;;;;;4973491;28;20410;-90
2022/12/09 09:46:55;;;;;;;111.80;41.90;;;0.80;95.50;;;;;;4974074;28;20464;-91
2022/12/09 09:49:45;;;;;;;113.10;41.57;;;0.80;95.40;;;;;;4990237;28;20925;-90
2022/12/09 09:52:20;;;;;;;191.07;48.13;;;0.70;95.50;;;;;;4989823;28;20437;-90
2022/12/09 09:54:46;;;;;;;125.95;45.13;;;0.80;95.60;;;;;;4991357;28;20459;-89
2022/12/09 09:57:24;;;;;;;138.02;45.42;;;0.80;95.60;;;;;;5009100;28;20855;-90
2022/12/09 10:00:24;;;;;;;152.32;45.65;;;0.80;95.60;;;;;;5000792;28;20902;-89
2022/12/09 10:03:00;;;;;;;157.95;46.45;;;0.90;95.70;;;;;;5000461;28;20415;-90
2022/12/09 10:05:31;;;;;;;127.97;44.35;;;0.90;95.70;;;;;;5009052;28;20425;-90
2022/12/09 10:08:35;;;;;;;135.57;45.80;;;0.90;95.60;;;;;;5008341;28;20417;-88
2022/12/09 10:11:13;;;;;;;178.67;47.80;;;0.90;95.50;;;;;;5008098;28;20920;-89
2022/12/09 10:13:55;;;;;;;137.13;45.35;;;1.00;95.50;;;;;;4980592;28;21162;-90
2022/12/09 10:16:39;;;;;;;150.70;45.53;;;1.00;95.40;;;;;;4969379;28;20446;-90
2022/12/09 10:19:15;;;;;;;138.55;44.35;;;1.00;95.40;;;;;;4988646;28;20418;-90
2022/12/09 10:21:43;;;;;;;137.32;45.05;;;1.00;95.40;;;;;;4989648;28;20437;-88
2022/12/09 10:24:27;;;;;;;270.20;54.20;;;1.00;95.50;;;;;;4988244;28;20406;-90
2022/12/09 10:27:03;;;;;;;235.20;49.07;;;1.10;95.50;;;;;;4990203;28;20414;-90
2022/12/09 10:29:41;;;;;;;173.23;46.53;;;1.10;95.40;;;;;;4972403;28;21223;-90
2022/12/09 10:32:15;;;;;;;121.70;42.77;;;1.10;95.50;;;;;;4988901;28;20426;-90
2022/12/09 10:34:40;;;;;;;171.73;48.78;;;1.10;95.40;;;;;;4973158;28;20937;-90
2022/12/09 10:37:20;;;;;;;140.60;45.20;;;1.20;95.40;;;;;;4990662;28;20411;-89
2022/12/09 10:39:47;;;;;;;182.10;50.77;;;1.20;95.40;;;;;;5028564;28;21076;-90
2022/12/09 10:45:07;;;;;;;139.07;45.08;;;1.20;95.30;;;;;;5027371;28;20436;-90
2022/12/09 10:47:33;;;;;;;151.95;43.38;;;1.20;95.50;;;;;;4990821;28;20436;-90
2022/12/09 10:49:58;;;;;;;228.03;48.00;;;1.20;95.30;;;;;;4991202;28;20428;-91
2022/12/09 10:52:27;;;;;;;195.93;45.80;;;1.20;95.20;;;;;;4992104;28;20405;-89
2022/12/09 10:54:53;;;;;;;124.80;41.73;;;1.30;95.20;;;;;;4990561;28;20487;-90
2022/12/09 10:57:25;;;;;;;138.23;41.23;;;1.30;95.20;;;;;;4991923;28;20899;-89
2022/12/09 11:00:01;;;;;;;173.90;43.67;;;1.30;95.20;;;;;;5008000;28;20459;-89
2022/12/09 11:02:28;;;;;;;170.18;42.30;;;1.30;95.20;;;;;;5006488;28;20420;-90
2022/12/09 11:04:55;;;;;;;186.38;43.83;;;1.30;95.10;;;;;;5007732;28;20535;-90
2022/12/09 11:07:24;;;;;;;167.45;42.13;;;1.30;95.10;;;;;;5006898;28;20401;-89
2022/12/09 11:09:55;;;;;;;165.27;43.90;;;1.40;95.10;;;;;;5008451;28;20413;-90
2022/12/09 11:12:27;;;;;;;124.97;40.70;;;1.30;95.00;;;;;;5006580;28;20404;-89
2022/12/09 11:14:54;;;;;;;90.28;35.15;;;1.40;95.10;;;;;;5008090;28;20413;-88
2022/12/09 11:17:39;;;;;;;128.30;39.65;;;1.30;95.00;;;;;;5007174;28;20405;-91
2022/12/09 11:20:04;;;;;;;149.18;42.30;;;1.30;95.00;;;;;;4985508;28;20442;-91
2022/12/09 11:22:38;;;;;;;103.27;38.93;;;1.30;95.00;;;;;;5002971;28;20459;-91
2022/12/09 11:25:19;;;;;;;147.57;41.45;;;1.30;95.10;;;;;;4994659;28;20435;-92
2022/12/09 11:27:52;;;;;;;148.93;41.78;;;1.30;95.20;;;;;;4994917;28;20982;-91
2022/12/09 11:30:26;;;;;;;142.68;39.65;;;1.40;95.20;;;;;;5023332;28;20427;-90
2022/12/09 11:33:02;;;;;;;152.70;39.85;;;1.50;95.20;;;;;;5023434;28;20413;-91
2022/12/09 11:35:43;;;;;;;138.57;40.38;;;1.60;94.90;;;;;;5023817;28;20478;-92
2022/12/09 11:38:28;;;;;;;98.83;37.40;;;1.60;94.90;;;;;;5022474;28;20473;-90
2022/12/09 11:44:31;;;;;;;89.30;36.17;;;1.60;94.60;;;;;;5007909;28;20451;-91
2022/12/09 11:46:59;;;;;;;97.78;38.22;;;1.60;94.70;;;;;;5005251;28;20417;-90
2022/12/09 11:49:26;;;;;;;98.18;37.47;;;1.60;94.70;;;;;;5023334;28;20438;-90
2022/12/09 11:52:26;;;;;;;128.40;39.80;;;1.60;94.70;;;;;;5023048;28;20412;-90
2022/12/09 11:55:12;;;;;;;97.03;38.42;;;1.50;94.80;;;;;;5005473;28;20927;-90
2022/12/09 11:57:49;;;;;;;102.50;38.92;;;1.60;94.90;;;;;;5023926;28;20424;-90
2022/12/09 12:00:23;;;;;;;107.75;41.33;;;1.70;94.70;;;;;;5022573;28;20421;-90
2022/12/09 12:03:17;;;;;;;85.72;36.58;;;1.70;94.80;;;;;;5006952;28;20413;-89
2022/12/09 12:05:47;;;;;;;61.55;33.45;;;1.90;94.80;;;;;;4986986;28;20947;-88
2022/12/09 12:08:28;;;;;;;56.72;31.38;;;2.20;94.80;;;;;;5022214;28;20405;-90
2022/12/09 12:10:59;;;;;;;50.80;29.65;;;2.60;94.50;;;;;;5007190;28;20417;-89
2022/12/09 12:13:35;;;;;;;62.70;33.20;;;2.80;93.60;;;;;;5006312;28;21002;-90
2022/12/09 12:16:15;;;;;;;61.50;32.90;;;2.70;92.90;;;;;;5022672;28;20939;-90
2022/12/09 12:18:46;;;;;;;67.70;33.50;;;2.60;93.00;;;;;;5023442;28;20931;-89
2022/12/09 12:21:37;;;;;;;62.22;34.13;;;2.50;93.10;;;;;;5005262;28;20401;-89
2022/12/09 12:24:24;;;;;;;61.03;32.75;;;2.50;93.40;;;;;;5023189;28;20937;-90
2022/12/09 12:26:56;;;;;;;62.00;32.63;;;2.50;93.30;;;;;;5022917;28;21143;-89
2022/12/09 12:29:28;;;;;;;61.17;32.53;;;2.40;93.20;;;;;;5005676;28;20417;-89
2022/12/09 12:32:25;;;;;;;66.27;33.40;;;2.40;93.40;;;;;;5022922;28;20594;-89
2022/12/09 12:35:24;;;;;;;61.33;33.63;;;2.30;93.40;;;;;;4999474;28;20449;-89
2022/12/09 12:38:16;;;;;;;66.30;33.33;;;2.30;93.60;;;;;;5006657;28;20424;-87
2022/12/09 12:41:03;;;;;;;75.53;34.78;;;2.20;93.50;;;;;;5010467;28;20417;-90
2022/12/09 12:46:40;;;;;;;74.68;35.20;;;2.20;93.70;;;;;;5009741;28;20432;-89
2022/12/09 12:49:27;;;;;;;74.47;36.17;;;2.10;93.70;;;;;;5010674;28;20413;-88